Time;durP1;ratioP1;P1;durP2;ratioP2;P2;SDS_P1;SDS_P2;PMS_P1;PMS_P2;Temp;Humidity;BMP_temperature;BMP_pressure;BME280_temperature;BME280_humidity;BME280_pressure;Samples;Min_cycle;Max_cycle;Signal;HPM_P1;HPM_P2
2024/01/13 00:00:08;;;;;;;32.20;13.60;;;;;;;-10.56;62.51;101659.13;107212;1260;108222;-69
2024/01/13 00:02:57;;;;;;;32.10;13.80;;;;;;;-10.55;62.69;101656.88;107207;1260;99211;-69
2024/01/13 00:05:26;;;;;;;34.00;15.40;;;;;;;-10.55;62.74;101654.46;107232;1262;99745;-69
2024/01/13 00:07:55;;;;;;;29.80;14.40;;;;;;;-10.52;62.89;101651.70;107270;1257;112791;-68
2024/01/13 00:10:23;;;;;;;32.30;13.10;;;;;;;-10.49;63.00;101651.75;107113;1258;109222;-70
2024/01/13 00:12:52;;;;;;;30.50;14.50;;;;;;;-10.45;63.01;101653.20;107258;1257;107419;-68
2024/01/13 00:15:20;;;;;;;41.50;13.40;;;;;;;-10.42;62.89;101646.30;107266;1257;99211;-69
2024/01/13 00:17:49;;;;;;;36.00;14.30;;;;;;;-10.44;62.70;101647.66;107270;1257;99263;-68
2024/01/13 00:20:17;;;;;;;30.80;13.10;;;;;;;-10.49;62.69;101642.58;107157;1258;112678;-69
2024/01/13 00:22:49;;;;;;;32.90;14.40;;;;;;;-10.50;62.78;101637.88;107215;1259;108631;-68
2024/01/13 00:25:17;;;;;;;37.60;15.70;;;;;;;-10.51;62.89;101630.58;107226;1258;107473;-69
2024/01/13 00:27:46;;;;;;;29.40;14.00;;;;;;;-10.50;62.99;101628.17;107120;1257;99293;-69
2024/01/13 00:30:15;;;;;;;37.70;14.50;;;;;;;-10.50;63.05;101633.70;107220;1258;99242;-71
2024/01/13 00:32:44;;;;;;;36.60;15.10;;;;;;;-10.51;62.93;101630.74;107140;1257;112514;-70
2024/01/13 00:35:14;;;;;;;39.00;18.50;;;;;;;-10.45;63.26;101622.33;107269;1260;107564;-70
2024/01/13 00:37:44;;;;;;;41.70;17.50;;;;;;;-10.39;62.94;101611.83;107239;1259;107718;-69
2024/01/13 00:40:13;;;;;;;48.40;20.20;;;;;;;-10.36;63.10;101604.02;107262;1257;99326;-69
2024/01/13 00:42:41;;;;;;;43.80;18.50;;;;;;;-10.32;63.13;101591.75;107242;1257;99167;-70
2024/01/13 00:45:12;;;;;;;45.90;20.40;;;;;;;-10.29;62.68;101586.40;107255;1260;113119;-68
2024/01/13 00:47:42;;;;;;;47.10;19.80;;;;;;;-10.26;62.96;101584.52;107238;1263;108046;-68
2024/01/13 00:50:11;;;;;;;44.10;20.10;;;;;;;-10.28;62.81;101581.55;107211;1257;107146;-69
2024/01/13 00:52:40;;;;;;;48.80;21.10;;;;;;;-10.36;62.50;101573.17;107190;1257;99201;-69
2024/01/13 00:55:09;;;;;;;46.10;21.30;;;;;;;-10.37;62.75;101562.59;107092;1257;100377;-69
2024/01/13 00:57:37;;;;;;;45.70;20.40;;;;;;;-10.38;62.96;101556.15;107312;1258;112273;-69
2024/01/13 01:00:07;;;;;;;42.80;19.90;;;;;;;-10.40;62.77;101550.95;107259;1259;108305;-70
2024/01/13 01:02:35;;;;;;;46.20;20.20;;;;;;;-10.42;62.71;101538.95;107062;1262;108673;-69
2024/01/13 01:05:05;;;;;;;46.20;19.40;;;;;;;-10.41;62.89;101543.31;107234;1258;99289;-69
2024/01/13 01:07:33;;;;;;;46.50;20.80;;;;;;;-10.44;62.82;101546.56;107234;1260;99729;-69
2024/01/13 01:10:01;;;;;;;38.90;18.90;;;;;;;-10.44;62.97;101539.80;107215;1258;112226;-69
2024/01/13 01:12:29;;;;;;;45.00;19.90;;;;;;;-10.44;62.37;101535.98;107257;1257;108591;-68
2024/01/13 01:14:58;;;;;;;53.70;20.40;;;;;;;-10.48;62.59;101528.66;107255;1257;107173;-69
2024/01/13 01:17:26;;;;;;;51.70;19.30;;;;;;;-10.54;62.39;101526.34;107260;1257;99195;-71
2024/01/13 01:19:56;;;;;;;47.60;20.50;;;;;;;-10.59;62.34;101513.11;107285;1257;99799;-70
2024/01/13 01:22:24;;;;;;;41.20;19.20;;;;;;;-10.62;62.68;101506.84;107319;1257;113298;-71
2024/01/13 01:24:53;;;;;;;43.10;18.30;;;;;;;-10.63;62.59;101506.14;107183;1258;108526;-69
2024/01/13 01:27:21;;;;;;;43.70;19.50;;;;;;;-10.67;62.64;101502.80;107274;1257;107810;-70
2024/01/13 01:29:50;;;;;;;51.60;21.00;;;;;;;-10.71;62.70;101499.98;107203;1257;99233;-68
2024/01/13 01:32:18;;;;;;;46.10;19.20;;;;;;;-10.71;62.80;101496.35;107270;1257;99259;-70
2024/01/13 01:34:47;;;;;;;52.30;21.50;;;;;;;-10.69;62.64;101489.95;107249;1259;113153;-69
2024/01/13 01:37:20;;;;;;;43.00;20.30;;;;;;;-10.72;62.73;101487.34;107270;1257;108299;-70
2024/01/13 01:39:48;;;;;;;39.80;18.40;;;;;;;-10.69;63.10;101478.52;107208;1258;107408;-69
2024/01/13 01:42:17;;;;;;;40.50;18.30;;;;;;;-10.66;63.01;101479.06;107186;1260;99267;-68
2024/01/13 01:44:45;;;;;;;55.00;19.90;;;;;;;-10.62;63.09;101475.63;107202;1260;99153;-69
2024/01/13 01:47:17;;;;;;;40.00;19.00;;;;;;;-10.57;63.40;101471.69;107184;1260;112104;-68
2024/01/13 01:49:46;;;;;;;47.30;18.10;;;;;;;-10.55;63.34;101469.12;107210;1257;108529;-68
2024/01/13 01:52:16;;;;;;;36.40;18.00;;;;;;;-10.52;63.26;101468.27;107236;1258;107328;-69
2024/01/13 01:54:44;;;;;;;40.60;16.60;;;;;;;-10.51;63.36;101464.48;107246;1257;99259;-70
2024/01/13 01:57:16;;;;;;;42.00;15.90;;;;;;;-10.51;63.37;101464.13;107300;1257;99135;-68
2024/01/13 01:59:45;;;;;;;40.00;16.40;;;;;;;-10.51;63.45;101463.42;107251;1257;113384;-68
2024/01/13 02:02:16;;;;;;;35.60;16.20;;;;;;;-10.54;63.20;101453.70;107233;1259;108606;-69
2024/01/13 02:04:44;;;;;;;40.90;17.00;;;;;;;-10.54;63.74;101455.09;107276;1257;106842;-67
2024/01/13 02:07:13;;;;;;;42.50;17.90;;;;;;;-10.51;63.69;101444.36;107199;1257;99192;-66
2024/01/13 02:09:42;;;;;;;42.90;18.10;;;;;;;-10.55;63.22;101439.64;107307;1256;99076;-68
2024/01/13 02:12:10;;;;;;;41.30;17.30;;;;;;;-10.55;63.47;101433.39;107260;1257;111264;-68
2024/01/13 02:14:39;;;;;;;33.80;15.80;;;;;;;-10.54;63.45;101429.59;107275;1257;108980;-69
2024/01/13 02:17:08;;;;;;;46.50;16.90;;;;;;;-10.59;63.81;101433.54;107196;1256;107578;-67
2024/01/13 02:19:37;;;;;;;38.40;17.60;;;;;;;-10.56;63.54;101437.22;107205;1257;99196;-68
2024/01/13 02:22:05;;;;;;;39.30;17.40;;;;;;;-10.50;63.61;101429.80;107242;1257;99068;-67
2024/01/13 02:24:33;;;;;;;39.70;17.80;;;;;;;-10.47;63.59;101423.94;107242;1258;114376;-68
2024/01/13 02:27:02;;;;;;;43.40;19.50;;;;;;;-10.44;63.68;101419.27;107246;1260;108419;-67
2024/01/13 02:29:30;;;;;;;40.90;19.90;;;;;;;-10.42;63.70;101412.70;107181;1257;108897;-67
2024/01/13 02:31:59;;;;;;;45.20;19.80;;;;;;;-10.37;63.71;101410.14;107248;1257;99314;-67
2024/01/13 02:34:27;;;;;;;47.20;19.70;;;;;;;-10.31;63.81;101411.02;107269;1256;99845;-68
2024/01/13 02:36:56;;;;;;;40.70;18.50;;;;;;;-10.28;63.92;101408.80;107258;1257;112709;-68
2024/01/13 02:39:24;;;;;;;42.90;19.40;;;;;;;-10.29;64.14;101404.98;107251;1257;108234;-68
2024/01/13 02:41:53;;;;;;;38.90;18.40;;;;;;;-10.31;63.91;101400.80;107171;1257;106903;-68
2024/01/13 02:44:22;;;;;;;35.30;17.70;;;;;;;-10.31;63.85;101395.42;107152;1258;99201;-67
2024/01/13 02:46:50;;;;;;;45.00;18.70;;;;;;;-10.30;63.99;101397.52;107213;1260;100337;-67
2024/01/13 02:49:19;;;;;;;44.80;18.50;;;;;;;-10.27;63.97;101398.57;107187;1257;113213;-68
2024/01/13 02:51:47;;;;;;;42.00;18.20;;;;;;;-10.21;64.30;101388.55;107194;1258;108495;-68
2024/01/13 02:54:16;;;;;;;47.80;19.70;;;;;;;-10.12;64.50;101391.56;107203;1256;107419;-67
2024/01/13 02:56:44;;;;;;;45.90;20.10;;;;;;;-10.12;63.82;101385.66;107190;1260;99248;-69
2024/01/13 02:59:13;;;;;;;54.70;20.80;;;;;;;-10.10;63.77;101379.61;107166;1257;99182;-67
2024/01/13 03:01:43;;;;;;;35.00;15.20;;;;;;;-10.04;63.82;101376.70;107207;1257;113431;-69
2024/01/13 03:04:11;;;;;;;36.40;16.70;;;;;;;-10.01;63.47;101374.80;107221;1257;108423;-70
2024/01/13 03:06:40;;;;;;;27.90;15.60;;;;;;;-9.98;63.58;101369.78;107147;1257;108475;-68
2024/01/13 03:09:08;;;;;;;36.10;17.30;;;;;;;-9.94;63.59;101370.51;107145;1260;99324;-67
2024/01/13 03:11:37;;;;;;;38.80;18.00;;;;;;;-9.92;63.42;101367.57;107189;1256;100885;-68
2024/01/13 03:14:06;;;;;;;33.30;14.90;;;;;;;-9.90;63.38;101359.23;107161;1258;112752;-68
2024/01/13 03:16:34;;;;;;;37.30;16.50;;;;;;;-9.89;63.41;101350.21;107181;1258;109427;-67
2024/01/13 03:19:02;;;;;;;38.30;16.10;;;;;;;-9.87;63.30;101350.93;107062;1262;107720;-67
2024/01/13 03:21:31;;;;;;;34.90;16.20;;;;;;;-9.86;63.25;101347.46;107181;1257;99891;-66
2024/01/13 03:23:59;;;;;;;30.40;14.60;;;;;;;-9.82;63.52;101345.75;107258;1257;99191;-66
2024/01/13 03:26:28;;;;;;;31.40;14.70;;;;;;;-9.79;63.23;101347.49;107197;1257;112372;-69
2024/01/13 03:28:56;;;;;;;27.10;12.40;;;;;;;-9.76;63.41;101344.91;107208;1257;108454;-68
2024/01/13 03:31:24;;;;;;;28.80;12.90;;;;;;;-9.71;63.32;101341.63;107136;1257;106795;-68
2024/01/13 03:33:53;;;;;;;24.80;11.00;;;;;;;-9.62;63.60;101335.41;107214;1257;99759;-67
2024/01/13 03:36:21;;;;;;;21.80;10.80;;;;;;;-9.58;63.56;101333.69;107289;1259;99071;-69
2024/01/13 03:38:50;;;;;;;21.60;11.00;;;;;;;-9.56;63.52;101325.02;107252;1260;113186;-67
2024/01/13 03:41:22;;;;;;;18.70;9.50;;;;;;;-9.52;63.63;101322.08;107269;1257;108963;-67
2024/01/13 03:43:51;;;;;;;21.40;10.00;;;;;;;-9.43;63.75;101316.54;107252;1257;108341;-68
2024/01/13 03:46:19;;;;;;;20.70;9.20;;;;;;;-9.34;63.61;101311.70;107248;1257;99302;-68
2024/01/13 03:48:48;;;;;;;18.00;8.20;;;;;;;-9.30;63.43;101307.02;107221;1257;99097;-68
2024/01/13 03:51:16;;;;;;;22.10;9.60;;;;;;;-9.27;63.35;101305.81;107228;1258;113657;-70
2024/01/13 03:53:45;;;;;;;24.50;10.30;;;;;;;-9.23;63.26;101303.39;107268;1257;108588;-69
2024/01/13 03:56:14;;;;;;;19.20;9.00;;;;;;;-9.17;63.65;101295.05;107238;1260;107660;-67
2024/01/13 03:58:42;;;;;;;18.60;9.20;;;;;;;-9.11;63.45;101288.80;107245;1257;99134;-67
2024/01/13 04:01:11;;;;;;;17.10;9.10;;;;;;;-9.04;63.85;101284.13;107231;1256;99205;-69
2024/01/13 04:03:39;;;;;;;17.80;9.40;;;;;;;-8.95;63.75;101284.12;107235;1259;113799;-66
2024/01/13 04:06:08;;;;;;;20.90;9.50;;;;;;;-8.86;63.98;101281.17;107248;1257;107990;-68
2024/01/13 04:08:38;;;;;;;23.10;9.40;;;;;;;-8.78;63.76;101285.86;107300;1256;108001;-68
2024/01/13 04:11:08;;;;;;;21.50;9.00;;;;;;;-8.73;63.58;101286.38;107266;1257;99412;-68
2024/01/13 04:13:38;;;;;;;25.00;9.40;;;;;;;-8.70;63.78;101287.42;107258;1257;99987;-69
2024/01/13 04:16:11;;;;;;;17.20;8.50;;;;;;;-8.67;63.83;101289.52;107285;1255;113496;-66
2024/01/13 04:18:39;;;;;;;20.30;9.20;;;;;;;-8.64;63.84;101284.13;107345;1254;108367;-67
2024/01/13 04:21:08;;;;;;;19.70;10.10;;;;;;;-8.64;63.66;101285.67;107321;1257;107668;-67
2024/01/13 04:23:51;;;;;;;19.10;10.00;;;;;;;-8.67;63.78;101276.98;107192;1256;99374;-67
2024/01/13 04:26:21;;;;;;;21.70;10.00;;;;;;;-8.65;64.01;101269.52;107237;1257;99078;-68
2024/01/13 04:28:49;;;;;;;25.40;10.50;;;;;;;-8.61;64.12;101263.94;107175;1258;111315;-68
2024/01/13 04:31:18;;;;;;;19.60;9.90;;;;;;;-8.57;64.23;101269.31;107173;1256;108568;-68
2024/01/13 04:33:47;;;;;;;24.20;9.80;;;;;;;-8.55;64.22;101267.39;107158;1257;108534;-67
2024/01/13 04:36:16;;;;;;;23.50;10.80;;;;;;;-8.49;64.47;101262.17;107177;1260;99306;-68
2024/01/13 04:38:46;;;;;;;22.00;10.20;;;;;;;-8.45;64.57;101259.52;107191;1257;99938;-67
2024/01/13 04:41:14;;;;;;;24.20;11.40;;;;;;;-8.44;64.42;101259.17;107263;1257;111842;-67
2024/01/13 04:43:43;;;;;;;25.10;11.30;;;;;;;-8.45;64.55;101253.09;107228;1259;108238;-67
2024/01/13 04:46:11;;;;;;;28.50;13.00;;;;;;;-8.45;64.30;101259.34;107242;1256;108274;-68
2024/01/13 04:48:39;;;;;;;21.80;10.30;;;;;;;-8.43;64.48;101257.61;107178;1257;99211;-72
2024/01/13 04:51:09;;;;;;;21.10;11.30;;;;;;;-8.41;64.57;101254.12;107231;1256;99159;-67
2024/01/13 04:53:38;;;;;;;28.80;14.50;;;;;;;-8.39;64.59;101247.52;107224;1256;112468;-66
2024/01/13 04:56:06;;;;;;;21.10;11.30;;;;;;;-8.39;64.76;101244.04;107268;1257;108195;-68
2024/01/13 04:58:35;;;;;;;23.30;11.60;;;;;;;-8.35;64.87;101235.14;107283;1256;107241;-68
2024/01/13 05:01:03;;;;;;;24.50;10.30;;;;;;;-8.33;64.94;101236.52;107246;1259;99719;-68
2024/01/13 05:03:32;;;;;;;23.90;10.90;;;;;;;-8.30;64.86;101233.21;107301;1257;99179;-68
2024/01/13 05:06:01;;;;;;;27.40;10.00;;;;;;;-8.24;65.16;101228.84;107276;1257;113259;-68
2024/01/13 05:08:31;;;;;;;15.10;7.80;;;;;;;-8.18;65.31;101224.29;107287;1257;108098;-67
2024/01/13 05:10:59;;;;;;;31.50;12.20;;;;;;;-8.09;65.94;101222.16;107252;1255;107599;-66
2024/01/13 05:13:27;;;;;;;15.80;7.00;;;;;;;-7.98;66.53;101224.55;107144;1257;99233;-66
2024/01/13 05:15:56;;;;;;;19.90;7.10;;;;;;;-7.88;67.36;101218.25;107254;1259;99250;-67
2024/01/13 05:18:26;;;;;;;12.40;7.00;;;;;;;-7.79;67.94;101220.29;107251;1257;113447;-69
2024/01/13 05:20:55;;;;;;;11.40;5.90;;;;;;;-7.72;69.14;101218.85;107272;1257;107856;-67
2024/01/13 05:23:23;;;;;;;17.90;6.60;;;;;;;-7.62;68.94;101212.52;107138;1256;108457;-67
2024/01/13 05:25:52;;;;;;;14.40;6.30;;;;;;;-7.53;69.89;101209.84;107233;1257;99089;-68
2024/01/13 05:28:20;;;;;;;12.70;6.00;;;;;;;-7.45;70.62;101211.89;107226;1256;99054;-67
2024/01/13 05:30:48;;;;;;;19.30;6.20;;;;;;;-7.37;71.47;101210.09;107290;1257;113351;-67
2024/01/13 05:33:17;;;;;;;15.40;5.80;;;;;;;-7.31;71.80;101203.41;107307;1257;108327;-66
2024/01/13 05:35:46;;;;;;;14.50;5.60;;;;;;;-7.23;73.60;101203.70;107225;1257;108068;-67
2024/01/13 05:38:14;;;;;;;11.70;6.50;;;;;;;-7.19;73.44;101199.31;107270;1257;99282;-68
2024/01/13 05:40:44;;;;;;;17.60;7.50;;;;;;;-7.12;74.11;101192.64;107283;1256;99201;-69
2024/01/13 05:43:12;;;;;;;12.80;6.90;;;;;;;-7.08;74.38;101185.98;107269;1256;114586;-67
2024/01/13 05:45:41;;;;;;;12.30;5.70;;;;;;;-7.02;74.64;101191.49;107246;1256;107846;-67
2024/01/13 05:48:10;;;;;;;11.80;6.80;;;;;;;-6.97;75.39;101180.29;107155;1256;108706;-67
2024/01/13 05:50:39;;;;;;;15.30;6.90;;;;;;;-6.93;75.34;101175.89;107118;1256;99333;-68
2024/01/13 05:53:07;;;;;;;22.40;8.80;;;;;;;-6.88;75.33;101173.94;107185;1256;99121;-68
2024/01/13 05:55:36;;;;;;;18.10;8.10;;;;;;;-6.83;75.35;101171.78;107132;1257;112654;-67
2024/01/13 05:58:05;;;;;;;14.30;7.40;;;;;;;-6.79;75.33;101169.48;107189;1257;108528;-67
2024/01/13 06:00:34;;;;;;;18.30;8.90;;;;;;;-6.73;74.92;101164.71;107171;1258;108398;-68
2024/01/13 06:03:02;;;;;;;14.80;8.40;;;;;;;-6.67;75.37;101163.77;107156;1257;99336;-67
2024/01/13 06:05:31;;;;;;;13.10;7.00;;;;;;;-6.60;75.98;101167.36;107183;1257;99101;-67
2024/01/13 06:08:00;;;;;;;14.20;6.80;;;;;;;-6.55;75.84;101162.95;107171;1257;112070;-67
2024/01/13 06:10:30;;;;;;;12.80;7.00;;;;;;;-6.50;75.58;101163.40;107133;1256;107217;-68
2024/01/13 06:12:59;;;;;;;17.20;7.30;;;;;;;-6.44;75.57;101160.37;107114;1256;107830;-69
2024/01/13 06:15:30;;;;;;;18.80;7.70;;;;;;;-6.37;75.56;101157.48;107064;1257;99406;-67
2024/01/13 06:17:58;;;;;;;20.20;8.20;;;;;;;-6.32;75.24;101158.83;107282;1257;99186;-67
2024/01/13 06:20:27;;;;;;;18.80;8.50;;;;;;;-6.25;74.89;101152.11;107271;1257;113097;-67
2024/01/13 06:22:56;;;;;;;17.00;7.10;;;;;;;-6.18;74.34;101154.46;107300;1257;107474;-66
2024/01/13 06:25:25;;;;;;;16.50;7.50;;;;;;;-6.10;74.31;101153.31;107283;1257;108269;-68
2024/01/13 06:27:53;;;;;;;18.30;7.10;;;;;;;-6.01;74.11;101149.52;107254;1257;99108;-71
2024/01/13 06:30:21;;;;;;;14.20;8.00;;;;;;;-5.94;73.90;101153.23;107368;1257;99080;-69
2024/01/13 06:32:50;;;;;;;20.40;8.00;;;;;;;-5.86;73.70;101155.23;107319;1257;113235;-68
2024/01/13 06:35:19;;;;;;;16.80;7.80;;;;;;;-5.79;73.53;101147.77;107233;1257;107886;-68
2024/01/13 06:37:47;;;;;;;16.30;7.70;;;;;;;-5.72;73.52;101144.53;107347;1257;108065;-67
2024/01/13 06:40:16;;;;;;;16.30;7.90;;;;;;;-5.65;73.03;101157.89;107280;1257;99975;-67
2024/01/13 06:42:44;;;;;;;17.30;7.60;;;;;;;-5.61;72.84;101157.30;107327;1256;99064;-68
2024/01/13 06:45:12;;;;;;;22.50;6.70;;;;;;;-5.54;72.93;101160.33;107304;1257;112922;-67
2024/01/13 06:47:41;;;;;;;20.20;8.00;;;;;;;-5.50;72.83;101153.29;107183;1256;107728;-67
2024/01/13 06:50:09;;;;;;;20.60;8.40;;;;;;;-5.46;72.30;101154.61;107102;1260;108294;-66
2024/01/13 06:52:38;;;;;;;21.20;10.10;;;;;;;-5.42;72.32;101159.80;107097;1257;99191;-68
2024/01/13 06:55:08;;;;;;;25.10;11.70;;;;;;;-5.38;72.17;101154.50;107143;1256;99124;-66
2024/01/13 06:57:36;;;;;;;20.00;8.60;;;;;;;-5.33;71.77;101155.45;107174;1260;112229;-68
2024/01/13 07:00:07;;;;;;;18.60;7.80;;;;;;;-5.22;72.01;101158.24;107151;1256;107762;-67
2024/01/13 07:02:36;;;;;;;23.00;10.20;;;;;;;-5.14;71.38;101152.00;107359;1259;105945;-67
2024/01/13 07:05:05;;;;;;;16.80;8.90;;;;;;;-5.08;71.34;101147.68;107259;1255;99202;-66
2024/01/13 07:07:34;;;;;;;22.30;8.70;;;;;;;-5.01;71.33;101154.57;107142;1256;99194;-67
2024/01/13 07:10:04;;;;;;;27.70;11.40;;;;;;;-4.95;71.02;101154.98;107096;1256;112488;-67
2024/01/13 07:12:33;;;;;;;20.50;10.20;;;;;;;-4.90;70.45;101154.54;107301;1257;108344;-67
2024/01/13 07:15:03;;;;;;;19.40;9.70;;;;;;;-4.86;70.52;101159.19;107291;1257;108004;-69
2024/01/13 07:17:32;;;;;;;19.00;9.90;;;;;;;-4.80;70.32;101162.59;107304;1259;99068;-67
2024/01/13 07:20:01;;;;;;;15.70;9.20;;;;;;;-4.73;70.01;101161.05;107346;1254;99064;-67
2024/01/13 07:22:29;;;;;;;22.70;9.90;;;;;;;-4.67;70.01;101161.98;107166;1257;111881;-67
2024/01/13 07:24:58;;;;;;;17.50;8.70;;;;;;;-4.62;69.81;101154.91;107120;1256;107267;-68
2024/01/13 07:27:26;;;;;;;18.00;9.00;;;;;;;-4.58;69.37;101148.35;107106;1255;108794;-67
2024/01/13 07:29:55;;;;;;;24.80;9.10;;;;;;;-4.55;68.99;101151.61;107298;1257;99194;-68
2024/01/13 07:32:29;;;;;;;22.60;9.30;;;;;;;-4.50;68.88;101152.41;107300;1257;99736;-67
2024/01/13 07:34:58;;;;;;;22.50;10.40;;;;;;;-4.45;69.09;101148.95;107327;1257;113053;-67
2024/01/13 07:37:26;;;;;;;22.60;9.50;;;;;;;-4.41;68.38;101151.15;107344;1255;108483;-68
2024/01/13 07:39:55;;;;;;;22.50;9.70;;;;;;;-4.38;67.50;101151.09;107308;1257;107838;-67
2024/01/13 07:42:24;;;;;;;18.40;10.10;;;;;;;-4.35;67.80;101151.58;107257;1257;99242;-67
2024/01/13 07:44:52;;;;;;;24.00;9.90;;;;;;;-4.29;67.97;101142.17;107324;1259;99188;-67
2024/01/13 07:47:21;;;;;;;22.20;9.20;;;;;;;-4.23;67.51;101144.48;107153;1256;112956;-68
2024/01/13 07:49:49;;;;;;;37.30;11.00;;;;;;;-4.19;67.24;101144.41;107124;1256;107434;-67
2024/01/13 07:52:17;;;;;;;23.40;9.80;;;;;;;-4.13;67.34;101141.98;107097;1257;107924;-66
2024/01/13 07:54:46;;;;;;;23.30;11.10;;;;;;;-4.03;67.37;101140.21;107169;1257;99214;-67
2024/01/13 07:57:14;;;;;;;18.50;9.10;;;;;;;-3.89;67.50;101140.25;107311;1259;99245;-67
2024/01/13 07:59:43;;;;;;;21.80;9.50;;;;;;;-3.77;67.26;101137.34;107367;1256;113550;-69
2024/01/13 08:02:11;;;;;;;21.10;10.60;;;;;;;-3.67;67.34;101136.76;107182;1255;107426;-69
2024/01/13 08:04:40;;;;;;;20.60;9.70;;;;;;;-3.53;66.78;101140.82;107312;1257;107698;-68
2024/01/13 08:07:09;;;;;;;27.40;10.70;;;;;;;-3.42;66.81;101135.81;107313;1257;99275;-68
2024/01/13 08:09:38;;;;;;;29.40;10.80;;;;;;;-3.31;66.49;101143.46;107387;1257;99096;-68
2024/01/13 08:12:07;;;;;;;26.50;11.90;;;;;;;-3.24;65.69;101144.48;107222;1256;111790;-67
2024/01/13 08:14:36;;;;;;;19.00;9.80;;;;;;;-3.15;65.92;101135.84;107147;1256;106703;-67
2024/01/13 08:17:06;;;;;;;23.60;9.70;;;;;;;-3.01;65.94;101135.33;107195;1257;108169;-67
2024/01/13 08:19:37;;;;;;;23.20;11.20;;;;;;;-2.91;65.26;101128.20;107179;1256;99192;-67
2024/01/13 08:22:06;;;;;;;21.10;10.20;;;;;;;-2.83;65.09;101129.77;107303;1259;99192;-67
2024/01/13 08:24:35;;;;;;;18.60;10.30;;;;;;;-2.72;65.25;101129.27;107318;1257;112513;-67
2024/01/13 08:27:04;;;;;;;34.00;12.30;;;;;;;-2.60;65.24;101131.39;107279;1257;108556;-67
2024/01/13 08:29:32;;;;;;;19.70;10.90;;;;;;;-2.46;65.39;101135.59;107289;1257;108839;-68
2024/01/13 08:32:01;;;;;;;26.50;12.40;;;;;;;-2.37;64.96;101132.17;107316;1256;99246;-67
2024/01/13 08:34:29;;;;;;;24.20;11.30;;;;;;;-2.30;65.06;101135.13;107289;1256;99153;-67
2024/01/13 08:36:58;;;;;;;21.90;11.60;;;;;;;-2.22;64.99;101136.98;107300;1256;112271;-67
2024/01/13 08:39:26;;;;;;;26.40;11.00;;;;;;;-2.12;64.84;101143.56;107280;1257;108235;-68
2024/01/13 08:41:55;;;;;;;27.00;10.50;;;;;;;-2.02;64.55;101140.27;107246;1257;107524;-68
2024/01/13 08:44:23;;;;;;;24.40;10.30;;;;;;;-1.91;64.23;101134.50;106463;1259;1071224;-66
2024/01/13 08:46:51;;;;;;;22.80;11.30;;;;;;;-1.83;64.19;101134.78;107294;1256;99867;-68
2024/01/13 08:49:21;;;;;;;25.90;11.70;;;;;;;-1.69;64.39;101133.48;107259;1257;112622;-68
2024/01/13 08:51:50;;;;;;;22.10;11.30;;;;;;;-1.61;63.78;101130.55;107325;1257;108689;-69
2024/01/13 08:54:18;;;;;;;26.30;11.20;;;;;;;-1.58;63.21;101133.83;107273;1257;106885;-66
2024/01/13 08:56:47;;;;;;;23.50;12.50;;;;;;;-1.57;63.57;101133.08;107279;1256;99197;-67
2024/01/13 08:59:15;;;;;;;30.70;11.90;;;;;;;-1.51;63.38;101129.04;107266;1257;99293;-67
2024/01/13 09:01:44;;;;;;;27.40;12.10;;;;;;;-1.47;62.74;101129.79;107262;1257;113097;-67
2024/01/13 09:04:12;;;;;;;25.70;10.70;;;;;;;-1.44;62.39;101133.20;107285;1256;107758;-68
2024/01/13 09:06:41;;;;;;;22.00;10.80;;;;;;;-1.45;61.85;101134.09;107273;1257;108178;-67
2024/01/13 09:09:10;;;;;;;25.20;10.90;;;;;;;-1.36;62.25;101125.38;107274;1256;99199;-67
2024/01/13 09:11:41;;;;;;;20.90;11.40;;;;;;;-1.25;62.59;101118.98;107341;1256;99687;-68
2024/01/13 09:14:13;;;;;;;28.20;12.40;;;;;;;-1.14;62.52;101122.86;107296;1257;112083;-67
2024/01/13 09:16:44;;;;;;;24.30;11.00;;;;;;;-1.05;62.30;101120.12;107325;1256;107767;-67
2024/01/13 09:19:13;;;;;;;28.60;13.20;;;;;;;-1.02;61.63;101117.71;107315;1257;108729;-68
2024/01/13 09:21:42;;;;;;;27.40;12.50;;;;;;;-1.04;61.34;101120.41;107274;1256;99198;-67
2024/01/13 09:24:18;;;;;;;34.60;13.50;;;;;;;-1.08;60.03;101118.45;107214;1255;99077;-67
2024/01/13 09:26:49;;;;;;;24.90;11.90;;;;;;;-1.16;59.66;101120.13;107339;1255;113661;-67
2024/01/13 09:29:19;;;;;;;26.00;12.40;;;;;;;-1.19;60.15;101115.65;107357;1256;108927;-67
2024/01/13 09:31:50;;;;;;;23.90;13.50;;;;;;;-1.16;60.02;101119.23;107317;1256;108542;-68
2024/01/13 09:34:21;;;;;;;29.00;13.70;;;;;;;-1.13;59.68;101117.02;107294;1257;99146;-67
2024/01/13 09:36:51;;;;;;;29.80;14.30;;;;;;;-1.12;60.04;101116.13;107358;1257;99077;-68
2024/01/13 09:39:21;;;;;;;30.90;12.80;;;;;;;-1.10;59.59;101108.66;107296;1256;111757;-68
2024/01/13 09:41:56;;;;;;;27.30;13.90;;;;;;;-1.05;59.45;101107.97;107323;1255;108479;-68
2024/01/13 09:44:29;;;;;;;27.20;13.30;;;;;;;-1.00;59.57;101109.53;107290;1257;107896;-68
2024/01/13 09:47:00;;;;;;;28.70;12.40;;;;;;;-0.94;59.59;101102.29;107228;1256;99186;-68
2024/01/13 09:49:30;;;;;;;29.20;13.70;;;;;;;-0.86;59.95;101101.50;107222;1256;99090;-68
2024/01/13 09:52:06;;;;;;;32.30;14.00;;;;;;;-0.74;59.52;101098.77;107171;1256;113200;-68
2024/01/13 09:54:35;;;;;;;28.60;14.90;;;;;;;-0.64;59.87;101101.22;107199;1256;108661;-68
2024/01/13 09:57:05;;;;;;;33.80;14.60;;;;;;;-0.60;59.77;101099.67;107176;1257;108317;-67
2024/01/13 09:59:36;;;;;;;31.20;14.10;;;;;;;-0.55;59.97;101104.42;107130;1256;99218;-68
2024/01/13 10:02:12;;;;;;;31.90;15.70;;;;;;;-0.49;59.81;101103.31;107160;1256;99722;-69
2024/01/13 10:04:43;;;;;;;32.30;15.00;;;;;;;-0.42;60.19;101100.23;107207;1257;113620;-67
2024/01/13 10:07:12;;;;;;;29.90;13.90;;;;;;;-0.30;60.00;101099.98;107230;1259;107353;-71
2024/01/13 10:09:54;;;;;;;30.40;13.90;;;;;;;-0.21;59.35;101100.16;107283;1259;107031;-69
2024/01/13 10:12:23;;;;;;;31.60;15.40;;;;;;;-0.15;59.54;101104.17;107289;1257;99317;-68
2024/01/13 10:14:51;;;;;;;40.50;16.80;;;;;;;-0.10;59.35;101104.52;107336;1255;99742;-68
2024/01/13 10:17:19;;;;;;;40.50;17.50;;;;;;;-0.11;58.48;101101.39;107292;1256;113809;-68
2024/01/13 10:19:50;;;;;;;36.10;16.30;;;;;;;-0.12;58.35;101103.01;107325;1256;107150;-67
2024/01/13 10:22:18;;;;;;;48.40;19.60;;;;;;;-0.09;58.29;101106.73;107295;1257;106890;-68
2024/01/13 10:24:48;;;;;;;36.80;15.20;;;;;;;-0.11;58.00;101102.95;107280;1257;99202;-68
2024/01/13 10:27:16;;;;;;;38.40;17.20;;;;;;;-0.18;57.97;101098.98;107266;1256;99350;-67
2024/01/13 10:29:47;;;;;;;35.70;15.90;;;;;;;-0.21;58.48;101103.67;107221;1257;113541;-68
2024/01/13 10:32:16;;;;;;;43.20;17.30;;;;;;;-0.23;59.01;101104.29;107193;1260;108388;-68
2024/01/13 10:34:49;;;;;;;34.40;16.00;;;;;;;-0.25;59.77;101109.11;107293;1256;108410;-67
2024/01/13 10:37:17;;;;;;;29.50;14.90;;;;;;;-0.31;60.38;101106.52;107268;1259;99083;-67
2024/01/13 10:39:46;;;;;;;33.20;15.00;;;;;;;-0.37;60.54;101106.05;107190;1256;99333;-66
2024/01/13 10:42:19;;;;;;;32.90;14.90;;;;;;;-0.40;60.92;101106.14;107204;1256;112168;-68
2024/01/13 10:44:57;;;;;;;35.10;16.30;;;;;;;-0.43;61.15;101097.45;107195;1256;108643;-68
2024/01/13 10:47:33;;;;;;;31.40;16.10;;;;;;;-0.43;61.51;101100.64;107267;1256;106673;-68
2024/01/13 10:50:04;;;;;;;35.40;15.90;;;;;;;-0.40;61.35;101106.48;107118;1256;99260;-68
2024/01/13 10:52:54;;;;;;;32.60;17.50;;;;;;;-0.34;61.77;101103.30;107268;1256;99198;-67
2024/01/13 10:55:24;;;;;;;38.50;17.80;;;;;;;-0.31;61.38;101107.23;107194;1256;113586;-67
2024/01/13 10:57:54;;;;;;;54.30;19.10;;;;;;;-0.29;61.31;101111.04;107211;1256;106988;-67
2024/01/13 11:00:25;;;;;;;33.10;17.50;;;;;;;-0.26;61.51;101109.69;107213;1256;107807;-67
2024/01/13 11:02:55;;;;;;;34.40;17.00;;;;;;;-0.28;61.93;101109.23;107192;1256;99184;-67
2024/01/13 11:05:28;;;;;;;36.40;17.90;;;;;;;-0.23;62.62;101103.08;107219;1259;99908;-68